Terminal Aerodrome Forecast
Issued by NWS

Home | Current Version | Previous Version | Text Only | Print | Product List | Glossary On
Versions: 1 2 3 4 5 6 7 8 9 10 11 12 13 14 15 16 17 18 19 20 21 22
962
FTUS42 KILM 060534
TAFCRE
TAF
KCRE 060534Z 0606/0706 30004KT P6SM SCT025 BKN100
     FM060900 30003KT P6SM BKN025
     FM061400 29008KT P6SM VCSH BKN040 OVC100
     FM061700 29010G15KT P6SM VCTS SCT030CB BKN040 OVC120
     FM070000 28003KT P6SM SCT060 BKN200=

USA.gov is the U.S. government's official web portal to all federal, state and local government web resources and services.